Terminal Aerodrome Forecast
Issued by NWS

Home | Current Version | Previous Version | Text Only | Print | Product List | Glossary On
Versions: 1 2 3 4 5 6 7 8 9 10 11 12 13 14 15 16 17 18 19 20 21 22 23 24 25 26 27 28
000
FTUS45 KBOU 292212 AAB
TAFAPA
TAF AMD
KAPA 292212Z 2922/3018 03009KT P6SM FEW120 SCT220
     FM300000 34008KT P6SM FEW120 BKN200
     FM300200 26007KT P6SM SCT120 BKN200
     FM300400 18006KT P6SM FEW120 SCT200
     FM301600 10005KT P6SM SKC=

USA.gov is the U.S. government's official web portal to all federal, state and local government web resources and services.